Time;durP1;ratioP1;P1;durP2;ratioP2;P2;SDS_P1;SDS_P2;PMS_P1;PMS_P2;Temp;Humidity;BMP_temperature;BMP_pressure;BME280_temperature;BME280_humidity;BME280_pressure;Samples;Min_cycle;Max_cycle;Signal;HPM_P1;HPM_P2
2021/12/26 00:01:04;;;;;;;3.95;2.40;;;-3.10;99.90;;;-2.82;70.09;99831.09;5014684;28;20401;-81
2021/12/26 00:03:37;;;;;;;8.38;3.75;;;-3.10;99.90;;;-2.67;69.71;99832.88;4997098;28;20040;-80
2021/12/26 00:06:15;;;;;;;4.43;2.38;;;-3.00;99.90;;;-2.60;69.62;99830.56;5014942;28;20040;-80
2021/12/26 00:08:45;;;;;;;6.03;2.45;;;-3.10;99.90;;;-2.71;69.59;99831.81;5014614;28;20105;-81
2021/12/26 00:11:12;;;;;;;5.20;2.63;;;-3.00;99.90;;;-2.52;69.50;99831.84;4996822;28;20032;-82
2021/12/26 00:13:40;;;;;;;5.57;2.72;;;-3.00;99.90;;;-2.52;69.71;99829.13;5014033;28;20087;-80
2021/12/26 00:16:07;;;;;;;4.60;2.63;;;-3.00;99.90;;;-2.41;69.61;99817.75;5015240;28;20473;-81
2021/12/26 00:18:35;;;;;;;4.07;2.50;;;-2.90;99.90;;;-2.35;69.71;99821.25;4996699;28;20135;-82
2021/12/26 00:21:04;;;;;;;6.35;2.58;;;-2.90;99.90;;;-2.34;68.84;99822.88;5014087;28;20030;-81
2021/12/26 00:23:31;;;;;;;6.20;2.50;;;-2.90;99.90;;;-2.28;68.51;99824.47;5014382;28;20022;-81
2021/12/26 00:25:57;;;;;;;7.80;3.22;;;-2.80;99.90;;;-2.48;68.80;99828.25;5010066;28;20057;-80
2021/12/26 00:28:23;;;;;;;4.93;2.75;;;-2.90;99.90;;;-2.35;68.48;99815.78;5032512;28;20374;-82
2021/12/26 00:30:49;;;;;;;5.78;2.80;;;-2.80;99.90;;;-2.41;68.49;99808.75;5032832;28;20080;-80
2021/12/26 00:33:16;;;;;;;3.85;2.00;;;-2.90;99.90;;;-2.35;68.87;99818.53;5016035;28;20388;-81
2021/12/26 00:35:48;;;;;;;3.75;2.38;;;-2.80;99.90;;;-2.32;69.24;99821.50;5034004;28;20042;-80
2021/12/26 00:38:16;;;;;;;6.07;2.58;;;-2.80;99.90;;;-2.33;69.19;99811.66;5032915;28;20021;-82
2021/12/26 00:40:42;;;;;;;7.43;2.63;;;-2.80;99.90;;;-2.37;68.88;99804.31;5016085;28;20515;-80
2021/12/26 00:43:09;;;;;;;4.28;2.58;;;-2.80;99.90;;;-2.34;68.93;99803.72;5032805;28;20044;-82
2021/12/26 00:45:40;;;;;;;5.55;2.30;;;-2.80;99.90;;;-2.32;69.03;99805.09;5033760;28;20480;-82
2021/12/26 00:48:07;;;;;;;4.82;2.85;;;-2.80;99.90;;;-2.45;69.04;99805.81;5033783;28;20029;-81
2021/12/26 00:50:37;;;;;;;4.60;3.08;;;-2.80;99.90;;;-2.45;69.07;99803.06;5034317;28;20051;-80
2021/12/26 00:53:03;;;;;;;4.72;2.40;;;-2.80;99.90;;;-2.49;68.61;99804.75;5033867;28;20025;-82
2021/12/26 00:55:33;;;;;;;4.35;2.80;;;-2.90;99.90;;;-2.52;69.35;99797.13;5032175;28;20530;-80
2021/12/26 00:57:59;;;;;;;3.97;2.65;;;-2.90;99.90;;;-2.54;69.04;99796.63;5034539;28;20385;-82
2021/12/26 01:00:40;;;;;;;4.88;2.60;;;-2.90;99.90;;;-2.43;68.67;99786.34;5034105;28;20025;-80
2021/12/26 01:03:10;;;;;;;4.65;2.78;;;-2.90;99.90;;;-2.60;69.58;99784.09;5032354;28;20029;-80
2021/12/26 01:05:42;;;;;;;4.13;2.40;;;-2.90;99.90;;;-2.55;69.48;99795.00;5015977;28;20052;-81
2021/12/26 01:08:13;;;;;;;4.15;2.35;;;-2.90;99.90;;;-2.50;69.71;99794.91;5033989;28;20439;-80
2021/12/26 01:10:54;;;;;;;4.97;2.65;;;-2.90;99.90;;;-2.41;69.49;99786.88;5033807;28;20100;-81
2021/12/26 01:13:34;;;;;;;3.88;2.33;;;-2.90;99.90;;;-2.49;69.03;99782.06;5033834;28;20427;-81
2021/12/26 01:16:09;;;;;;;6.70;2.70;;;-2.90;99.90;;;-2.57;69.62;99783.53;5032439;28;20437;-80
2021/12/26 01:18:51;;;;;;;5.30;2.83;;;-2.90;99.90;;;-2.69;69.99;99781.22;5032197;28;20040;-80
2021/12/26 01:21:22;;;;;;;5.78;2.65;;;-3.00;99.90;;;-2.70;69.92;99792.44;5033587;28;20440;-82
2021/12/26 01:23:55;;;;;;;5.30;2.80;;;-3.00;99.90;;;-2.81;70.07;99786.28;5033456;28;20044;-81
2021/12/26 01:26:26;;;;;;;3.30;2.30;;;-3.10;99.90;;;-2.75;70.03;99776.09;5015588;28;20061;-80
2021/12/26 01:28:52;;;;;;;7.85;2.80;;;-3.10;99.90;;;-2.70;70.23;99778.78;4996202;28;20084;-80
2021/12/26 01:31:20;;;;;;;4.53;2.60;;;-3.10;99.90;;;-2.74;70.22;99781.28;4996010;28;20116;-80
2021/12/26 01:33:50;;;;;;;3.97;2.47;;;-3.10;99.90;;;-2.69;69.53;99777.66;4996163;28;20057;-80
2021/12/26 01:36:20;;;;;;;5.55;2.55;;;-3.10;99.90;;;-2.81;70.17;99774.53;5015191;28;20033;-80
2021/12/26 01:38:47;;;;;;;5.38;2.55;;;-3.20;99.90;;;-2.75;70.24;99778.81;5015531;28;20030;-80
2021/12/26 01:41:17;;;;;;;4.70;2.55;;;-3.20;99.90;;;-2.79;70.30;99764.94;4997639;28;20029;-81
2021/12/26 01:43:47;;;;;;;3.33;2.35;;;-3.20;99.90;;;-2.75;69.93;99763.25;4997601;28;20029;-81
2021/12/26 01:46:15;;;;;;;4.00;2.10;;;-3.20;99.90;;;-2.86;69.90;99771.88;5015212;28;20026;-82
2021/12/26 01:48:41;;;;;;;4.13;2.45;;;-3.20;99.90;;;-2.94;70.46;99770.59;4998747;28;20037;-82
2021/12/26 01:51:08;;;;;;;5.43;2.38;;;-3.30;99.90;;;-2.98;70.46;99774.16;4999195;28;20029;-80
2021/12/26 01:53:37;;;;;;;6.25;2.72;;;-3.30;99.90;;;-3.07;70.85;99773.19;5015578;28;20036;-81
2021/12/26 01:56:11;;;;;;;6.93;3.13;;;-3.30;99.90;;;-2.98;71.40;99772.25;5029937;23;20037;-78
2021/12/26 01:58:40;;;;;;;3.97;1.95;;;-3.40;99.90;;;-2.96;70.70;99772.81;5053372;28;20060;-80
2021/12/26 02:01:13;;;;;;;4.35;2.63;;;-3.40;99.90;;;-2.99;70.93;99767.91;5051444;28;20025;-79
2021/12/26 02:03:41;;;;;;;5.53;2.80;;;-3.40;99.90;;;-2.98;71.33;99766.78;5053403;28;20025;-78
2021/12/26 02:06:09;;;;;;;4.85;2.90;;;-3.40;99.90;;;-3.13;70.88;99772.44;5052989;28;20074;-78
2021/12/26 02:08:36;;;;;;;5.15;2.40;;;-3.40;99.90;;;-3.03;70.70;99760.59;5068952;28;20029;-76
2021/12/26 02:11:09;;;;;;;2.92;2.30;;;-3.40;99.90;;;-3.04;70.28;99761.69;5068861;28;20121;-80
2021/12/26 02:13:38;;;;;;;2.65;1.92;;;-3.30;99.90;;;-3.05;70.52;99760.06;5053671;28;20074;-80
2021/12/26 02:16:08;;;;;;;5.15;2.55;;;-3.30;99.90;;;-3.09;70.42;99750.81;5068449;28;20035;-79
2021/12/26 02:18:38;;;;;;;4.50;2.45;;;-3.30;99.90;;;-3.07;70.08;99756.78;5051955;28;20029;-80
2021/12/26 02:21:44;;;;;;;5.38;2.67;;;-3.30;99.90;;;-3.00;69.97;99758.09;5053451;28;20025;-79
2021/12/26 02:24:24;;;;;;;5.07;2.90;;;-3.30;99.90;;;-2.92;69.91;99757.44;5053634;28;20051;-80
2021/12/26 02:29:43;;;;;;;6.03;2.40;;;-3.30;99.90;;;-2.95;69.38;99768.13;5034297;28;20111;-80
2021/12/26 02:32:10;;;;;;;4.20;2.20;;;-3.30;99.90;;;-3.05;69.25;99771.00;5033132;28;20034;-78
2021/12/26 02:34:37;;;;;;;5.15;2.13;;;-3.30;99.90;;;-2.95;69.23;99768.94;5033589;28;20026;-78
2021/12/26 02:37:04;;;;;;;4.05;2.35;;;-3.30;99.90;;;-3.05;69.35;99763.59;5032703;28;20032;-76
2021/12/26 02:39:32;;;;;;;4.78;2.47;;;-3.30;99.90;;;-3.06;69.59;99759.25;5032266;28;20484;-75
2021/12/26 02:42:05;;;;;;;6.28;2.88;;;-3.40;99.90;;;-3.04;69.65;99759.75;5032681;28;20025;-76
2021/12/26 02:44:31;;;;;;;4.88;2.28;;;-3.40;99.90;;;-3.02;69.69;99752.13;5032522;28;20029;-80
2021/12/26 02:46:57;;;;;;;5.05;3.00;;;-3.40;99.90;;;-3.09;69.69;99743.44;5032423;28;20075;-80
2021/12/26 02:49:32;;;;;;;5.68;2.40;;;-3.40;99.90;;;-3.11;69.52;99744.84;5033010;28;20026;-79
2021/12/26 02:51:58;;;;;;;4.30;2.30;;;-3.40;99.90;;;-3.07;70.03;99748.59;5032542;28;20093;-76
2021/12/26 02:54:27;;;;;;;5.50;2.45;;;-3.40;99.90;;;-3.05;69.72;99754.59;5032806;28;20069;-80
2021/12/26 02:56:54;;;;;;;6.85;2.35;;;-3.40;99.90;;;-2.96;69.69;99740.00;5036206;28;20046;-78
2021/12/26 02:59:20;;;;;;;4.65;2.30;;;-3.40;99.90;;;-3.04;70.40;99746.09;5036050;28;20436;-80
2021/12/26 03:01:46;;;;;;;4.07;2.33;;;-3.40;99.90;;;-2.97;69.98;99746.56;5051338;28;20040;-78
2021/12/26 03:04:12;;;;;;;5.88;2.47;;;-3.40;99.90;;;-2.90;70.07;99738.84;5036550;28;20037;-79
2021/12/26 03:06:48;;;;;;;7.82;2.40;;;-3.30;99.90;;;-2.88;69.76;99739.34;5038906;28;20033;-75
2021/12/26 03:09:14;;;;;;;4.72;3.13;;;-3.30;99.90;;;-2.80;70.09;99748.84;5054487;28;20033;-81
2021/12/26 03:11:44;;;;;;;4.60;2.53;;;-3.20;99.90;;;-2.85;69.32;99741.50;5051723;28;20055;-78
2021/12/26 03:14:09;;;;;;;4.03;2.42;;;-3.20;99.90;;;-2.83;69.25;99735.75;5036278;28;20029;-80
2021/12/26 03:16:35;;;;;;;3.85;2.22;;;-3.20;99.90;;;-2.80;68.47;99737.91;5035928;28;20439;-77
2021/12/26 03:19:04;;;;;;;5.78;2.58;;;-3.20;99.90;;;-2.77;69.14;99738.13;5035925;28;20035;-80
2021/12/26 03:21:30;;;;;;;4.18;2.22;;;-3.20;99.90;;;-2.70;69.32;99735.06;5035457;28;20033;-79
2021/12/26 03:23:57;;;;;;;5.03;2.70;;;-3.20;99.90;;;-2.64;69.26;99742.06;5051303;28;20025;-78
2021/12/26 03:26:23;;;;;;;4.80;2.90;;;-3.10;99.90;;;-2.57;69.16;99730.78;5051509;28;20033;-78
2021/12/26 03:28:49;;;;;;;3.35;2.10;;;-3.10;99.90;;;-2.56;69.31;99744.16;5054243;28;20493;-77
2021/12/26 03:31:15;;;;;;;5.28;2.60;;;-3.10;99.90;;;-2.56;69.17;99738.69;5055323;28;20079;-76
2021/12/26 03:33:44;;;;;;;4.25;2.28;;;-3.00;99.90;;;-2.62;68.06;99737.13;5055225;28;20037;-76
2021/12/26 03:36:10;;;;;;;3.67;2.38;;;-3.10;99.90;;;-2.55;68.51;99740.31;5055343;28;20029;-79
2021/12/26 03:38:36;;;;;;;6.13;2.88;;;-3.00;99.90;;;-2.52;68.85;99736.16;5055955;28;20028;-78
2021/12/26 03:41:12;;;;;;;3.75;2.28;;;-3.00;99.90;;;-2.48;68.78;99737.22;5054547;28;20446;-80
2021/12/26 03:43:37;;;;;;;4.15;2.35;;;-3.00;99.90;;;-2.42;69.20;99736.03;5055719;28;20063;-78
2021/12/26 03:46:03;;;;;;;4.38;2.35;;;-2.90;99.90;;;-2.48;67.74;99740.78;5054318;28;20538;-77
2021/12/26 03:48:29;;;;;;;5.15;2.22;;;-2.90;99.90;;;-2.47;68.44;99728.69;5070642;28;20395;-78
2021/12/26 03:50:57;;;;;;;5.32;2.50;;;-2.90;99.90;;;-2.57;68.35;99725.31;5055139;28;20031;-78
2021/12/26 03:53:24;;;;;;;4.47;2.50;;;-3.00;99.90;;;-2.54;67.60;99728.28;5055356;28;20028;-79
2021/12/26 03:55:53;;;;;;;4.45;2.28;;;-3.00;99.90;;;-2.49;68.10;99732.84;5055072;28;20028;-78
2021/12/26 03:58:19;;;;;;;4.03;2.40;;;-3.00;99.90;;;-2.55;68.09;99737.56;5055495;28;20197;-80
2021/12/26 04:00:48;;;;;;;5.95;2.88;;;-3.00;99.90;;;-2.44;68.69;99738.25;5054285;28;20495;-80
2021/12/26 04:03:15;;;;;;;4.65;2.42;;;-2.90;99.90;;;-2.43;68.89;99748.88;5055156;28;20040;-78
2021/12/26 04:05:44;;;;;;;4.38;3.03;;;-2.90;99.90;;;-2.46;67.82;99746.75;5070448;28;20024;-80
2021/12/26 04:08:10;;;;;;;5.07;2.58;;;-2.90;99.90;;;-2.41;68.24;99743.94;5069582;28;20028;-76
2021/12/26 04:10:36;;;;;;;4.10;3.00;;;-2.80;99.90;;;-2.38;67.50;99734.34;5055263;28;20068;-79
2021/12/26 04:13:04;;;;;;;3.83;2.78;;;-2.90;99.90;;;-2.36;67.39;99732.94;5054928;28;20083;-78
2021/12/26 04:15:31;;;;;;;5.93;2.40;;;-2.90;99.90;;;-2.39;67.31;99740.91;5070619;28;20032;-76
2021/12/26 04:18:00;;;;;;;4.97;2.30;;;-2.80;99.90;;;-2.46;67.61;99730.34;5069992;28;20033;-79
2021/12/26 04:20:28;;;;;;;3.03;2.00;;;-2.90;99.90;;;-2.50;67.61;99731.22;5055115;28;20383;-80
2021/12/26 04:22:56;;;;;;;4.00;2.53;;;-2.90;99.90;;;-2.37;67.87;99733.22;5053433;28;20116;-78
2021/12/26 04:25:23;;;;;;;5.32;2.53;;;-2.90;99.90;;;-2.28;67.88;99736.94;5045957;28;20110;-77
2021/12/26 04:27:50;;;;;;;2.88;2.20;;;-2.80;99.90;;;-2.24;67.99;99724.28;5034854;28;20021;-78
2021/12/26 04:30:19;;;;;;;4.00;2.60;;;-2.80;99.90;;;-2.35;67.01;99729.09;5050326;28;20362;-80
2021/12/26 04:32:49;;;;;;;3.00;2.40;;;-2.80;99.90;;;-2.53;67.48;99727.16;5050176;28;20480;-78
2021/12/26 04:35:17;;;;;;;6.80;2.60;;;-2.80;99.90;;;-2.44;68.12;99728.13;5033252;28;20033;-79
2021/12/26 04:37:44;;;;;;;3.38;2.10;;;-2.80;99.90;;;-2.51;67.94;99735.06;5049972;28;20030;-78
2021/12/26 04:40:14;;;;;;;5.47;2.30;;;-2.80;99.90;;;-2.50;67.75;99732.03;5034657;28;20048;-80
2021/12/26 04:42:43;;;;;;;4.05;2.40;;;-2.90;99.90;;;-2.34;68.00;99730.72;5048647;28;20018;-74
2021/12/26 04:45:09;;;;;;;7.90;2.53;;;-2.80;99.90;;;-2.28;67.57;99734.19;5056198;28;20014;-75
2021/12/26 04:47:40;;;;;;;4.00;2.13;;;-2.80;99.90;;;-2.38;68.04;99728.88;5061923;28;20035;-78
2021/12/26 04:50:16;;;;;;;4.30;2.25;;;-2.80;99.90;;;-2.35;68.23;99734.56;5035163;28;20032;-80
2021/12/26 04:52:45;;;;;;;5.90;2.63;;;-2.80;99.90;;;-2.37;67.65;99734.03;5049412;28;20036;-75
2021/12/26 04:55:16;;;;;;;4.70;2.67;;;-2.70;99.90;;;-2.42;68.26;99736.03;5034246;28;20508;-80
2021/12/26 04:57:42;;;;;;;3.45;2.35;;;-2.80;99.90;;;-2.42;67.99;99733.31;5033985;28;20060;-78
2021/12/26 05:00:17;;;;;;;4.05;2.17;;;-2.80;99.90;;;-2.43;67.78;99732.47;5033793;28;20030;-78
2021/12/26 05:02:49;;;;;;;4.57;2.50;;;-2.80;99.90;;;-2.42;68.38;99728.66;5049079;28;20137;-78
2021/12/26 05:05:20;;;;;;;4.20;2.42;;;-2.80;99.90;;;-2.33;68.74;99732.34;5035369;28;20049;-79
2021/12/26 05:07:47;;;;;;;3.03;1.92;;;-2.70;99.90;;;-2.34;68.51;99727.16;5037670;28;20077;-77
2021/12/26 05:10:18;;;;;;;4.68;2.25;;;-2.70;99.90;;;-2.44;68.79;99724.59;5050500;28;20029;-80
2021/12/26 05:12:44;;;;;;;3.70;2.10;;;-2.70;99.90;;;-2.35;68.43;99709.13;5035378;28;20032;-77
2021/12/26 05:15:15;;;;;;;3.80;2.60;;;-2.70;99.90;;;-2.26;68.65;99710.91;5052965;28;20052;-80
2021/12/26 05:17:40;;;;;;;3.83;2.33;;;-2.70;99.90;;;-2.21;68.22;99701.78;5033684;28;20030;-80
2021/12/26 05:20:10;;;;;;;4.22;2.50;;;-2.70;99.90;;;-2.30;68.42;99707.13;5048812;28;20025;-78
2021/12/26 05:22:36;;;;;;;7.28;2.55;;;-2.70;99.90;;;-2.39;68.49;99702.63;5037244;28;20040;-78
2021/12/26 05:25:06;;;;;;;4.20;2.00;;;-2.70;99.90;;;-2.24;68.24;99708.69;5040417;28;20025;-80
2021/12/26 05:27:33;;;;;;;3.53;2.33;;;-2.70;99.90;;;-2.22;68.67;99698.28;5053451;28;20021;-77
2021/12/26 05:29:59;;;;;;;3.13;2.25;;;-2.70;99.90;;;-2.32;68.90;99703.09;5069302;28;20155;-80
2021/12/26 05:32:25;;;;;;;5.35;2.60;;;-2.70;99.90;;;-2.31;69.27;99699.25;5053573;28;20040;-78
2021/12/26 05:34:54;;;;;;;3.72;2.38;;;-2.70;99.90;;;-2.25;69.13;99703.53;5053907;28;20024;-79
2021/12/26 05:37:23;;;;;;;2.85;2.22;;;-2.70;99.90;;;-2.20;69.09;99698.78;5053033;28;20036;-78
2021/12/26 05:39:49;;;;;;;3.97;2.28;;;-2.60;99.90;;;-2.15;69.43;99695.94;5053301;28;20124;-78
2021/12/26 05:42:16;;;;;;;3.78;2.45;;;-2.60;99.90;;;-2.12;70.32;99698.09;5053033;28;20503;-77
2021/12/26 05:44:48;;;;;;;3.38;2.35;;;-2.60;99.90;;;-1.95;69.08;99697.56;5068928;28;20074;-79
2021/12/26 05:47:15;;;;;;;3.63;2.47;;;-2.60;99.90;;;-1.96;69.40;99690.47;5070745;28;20036;-79
2021/12/26 05:49:41;;;;;;;5.30;2.55;;;-2.50;99.90;;;-1.96;69.88;99695.94;5073498;28;20025;-79
2021/12/26 05:52:09;;;;;;;4.85;2.47;;;-2.50;99.90;;;-2.04;69.35;99691.16;5055691;28;20067;-78
2021/12/26 05:54:37;;;;;;;5.32;2.50;;;-2.50;99.90;;;-1.96;69.43;99685.00;5054378;28;20108;-78
2021/12/26 05:57:05;;;;;;;5.75;2.85;;;-2.50;99.90;;;-2.00;69.54;99689.44;5068897;28;20029;-79
2021/12/26 05:59:31;;;;;;;3.95;2.55;;;-2.50;99.90;;;-1.97;69.36;99674.34;5053202;28;20037;-79
2021/12/26 06:02:00;;;;;;;5.82;2.75;;;-2.50;99.90;;;-1.94;69.67;99684.69;5052965;28;20064;-78
2021/12/26 06:04:32;;;;;;;5.63;2.75;;;-2.50;99.90;;;-1.96;69.67;99678.72;5052134;28;20025;-80
2021/12/26 06:06:59;;;;;;;5.53;2.53;;;-2.50;99.90;;;-2.07;69.91;99669.84;5067600;28;20057;-78
2021/12/26 06:09:25;;;;;;;4.38;2.50;;;-2.50;99.90;;;-1.97;70.18;99672.44;5068146;28;20028;-79
2021/12/26 06:11:52;;;;;;;5.97;2.85;;;-2.50;99.90;;;-1.98;70.50;99676.25;5051556;28;20059;-79
2021/12/26 06:14:18;;;;;;;4.07;2.53;;;-2.50;99.90;;;-2.07;70.92;99674.50;5052046;28;20388;-79
2021/12/26 06:16:44;;;;;;;4.20;2.45;;;-2.50;99.90;;;-2.03;70.99;99675.53;5067854;28;20082;-78
2021/12/26 06:19:10;;;;;;;5.93;2.80;;;-2.50;99.90;;;-1.98;70.56;99675.44;5068404;28;20025;-80
2021/12/26 06:21:36;;;;;;;6.25;3.00;;;-2.40;99.90;;;-1.89;70.97;99676.38;5052783;28;20036;-77
2021/12/26 06:24:03;;;;;;;3.45;2.30;;;-2.40;99.90;;;-1.91;70.97;99678.63;5052697;28;20036;-77
2021/12/26 06:26:30;;;;;;;5.97;3.13;;;-2.30;99.90;;;-1.84;71.37;99676.31;5052505;28;20029;-79
2021/12/26 06:28:56;;;;;;;6.93;2.92;;;-2.40;99.90;;;-1.73;71.18;99681.28;5052405;28;20086;-78
2021/12/26 06:31:22;;;;;;;4.40;2.65;;;-2.30;99.90;;;-1.75;71.05;99678.06;5054309;28;20061;-79
2021/12/26 06:33:48;;;;;;;7.50;3.20;;;-2.30;99.90;;;-1.74;71.02;99676.97;5071988;28;20349;-79
2021/12/26 06:36:16;;;;;;;4.18;2.50;;;-2.30;99.90;;;-1.73;70.82;99672.28;5055958;28;20111;-76
2021/12/26 06:38:48;;;;;;;4.95;3.03;;;-2.30;99.90;;;-1.76;70.82;99672.88;5057655;28;20035;-79
2021/12/26 06:41:17;;;;;;;5.00;2.70;;;-2.30;99.90;;;-1.83;71.42;99669.75;5072695;28;20040;-78
2021/12/26 06:43:52;;;;;;;5.50;2.95;;;-2.30;99.90;;;-1.84;71.62;99663.44;5057157;28;20086;-77
2021/12/26 06:46:18;;;;;;;3.50;2.78;;;-2.30;99.90;;;-1.82;72.07;99660.38;5057182;28;20032;-79
2021/12/26 06:48:44;;;;;;;4.82;2.75;;;-2.30;99.90;;;-1.81;72.02;99662.03;5057520;28;20025;-79
2021/12/26 06:51:16;;;;;;;5.05;3.05;;;-2.30;99.90;;;-1.75;71.68;99660.81;5072707;28;20111;-78
2021/12/26 06:53:46;;;;;;;5.38;3.00;;;-2.30;99.90;;;-1.86;71.61;99660.19;5056086;28;20528;-78
2021/12/26 06:56:11;;;;;;;5.35;3.17;;;-2.30;99.90;;;-1.77;71.94;99666.63;5056754;28;20024;-80
2021/12/26 06:58:41;;;;;;;4.75;2.80;;;-2.20;99.90;;;-1.71;72.40;99672.81;5057971;28;20036;-77
2021/12/26 07:01:07;;;;;;;4.28;2.60;;;-2.30;99.90;;;-1.66;71.99;99659.81;5057101;28;20116;-79
2021/12/26 07:03:33;;;;;;;6.05;3.00;;;-2.20;99.90;;;-1.85;72.95;99661.81;5056555;28;20079;-76
2021/12/26 07:05:59;;;;;;;3.75;2.20;;;-2.20;99.90;;;-1.79;73.07;99660.59;5057002;28;20029;-79
2021/12/26 07:08:24;;;;;;;6.80;3.25;;;-2.30;99.90;;;-1.71;72.65;99654.44;5072205;28;20583;-79
2021/12/26 07:10:51;;;;;;;5.63;3.22;;;-2.20;99.90;;;-1.66;72.80;99662.56;5056234;28;20029;-79
2021/12/26 07:13:18;;;;;;;6.07;3.50;;;-2.20;99.90;;;-1.67;73.20;99671.88;5056359;28;20032;-81
2021/12/26 07:15:44;;;;;;;5.70;3.10;;;-2.20;99.90;;;-1.63;73.30;99669.34;5056090;28;20059;-78
2021/12/26 07:18:10;;;;;;;5.95;3.50;;;-2.20;99.90;;;-1.63;73.80;99666.63;5057112;28;20037;-78
2021/12/26 07:20:37;;;;;;;7.03;3.22;;;-2.20;99.90;;;-1.64;73.88;99674.00;5057254;28;20068;-78
2021/12/26 07:23:09;;;;;;;4.63;3.20;;;-2.10;99.90;;;-1.52;73.80;99672.72;5071509;28;20033;-80
2021/12/26 07:25:35;;;;;;;5.28;2.80;;;-2.10;99.90;;;-1.65;74.22;99675.16;5054910;28;20029;-79
2021/12/26 07:28:03;;;;;;;6.50;3.35;;;-2.10;99.90;;;-1.54;74.17;99678.50;5057305;28;20086;-80
2021/12/26 07:30:29;;;;;;;6.68;3.25;;;-2.10;99.90;;;-1.50;74.46;99673.22;5055579;28;20506;-80
2021/12/26 07:32:56;;;;;;;5.82;3.42;;;-2.00;99.90;;;-1.45;74.25;99675.88;5055156;28;20124;-79
2021/12/26 07:35:22;;;;;;;4.93;2.83;;;-2.00;99.90;;;-1.42;74.43;99680.75;5055723;28;20365;-80
2021/12/26 07:37:48;;;;;;;5.30;2.85;;;-2.00;99.90;;;-1.41;73.80;99683.19;5055172;28;20037;-79
2021/12/26 07:40:14;;;;;;;4.97;3.25;;;-2.00;99.90;;;-1.39;74.13;99680.16;5056195;28;20102;-80
2021/12/26 07:42:46;;;;;;;5.68;3.13;;;-2.00;99.90;;;-1.40;74.68;99673.84;5055174;28;20064;-79
2021/12/26 07:45:13;;;;;;;7.30;3.15;;;-1.90;99.90;;;-1.31;74.42;99680.25;5055669;28;20061;-80
2021/12/26 07:47:42;;;;;;;5.57;3.20;;;-1.90;99.90;;;-1.32;74.08;99680.56;5055308;28;20029;-79
2021/12/26 07:50:08;;;;;;;5.43;3.20;;;-1.90;99.90;;;-1.38;74.45;99676.31;5054021;28;20120;-81
2021/12/26 07:52:39;;;;;;;4.40;2.70;;;-1.90;99.90;;;-1.32;74.61;99681.38;5055491;28;20037;-77
2021/12/26 07:55:13;;;;;;;5.38;3.13;;;-1.90;99.90;;;-1.26;74.54;99685.66;5054843;28;20056;-80
2021/12/26 07:57:48;;;;;;;5.65;2.88;;;-1.80;99.90;;;-1.18;75.09;99678.63;5054848;28;20466;-80
2021/12/26 08:00:18;;;;;;;5.68;3.17;;;-1.80;99.90;;;-1.16;74.72;99676.41;5054326;28;20106;-81
2021/12/26 08:02:51;;;;;;;5.05;3.10;;;-1.70;99.90;;;-1.20;74.76;99680.88;5055049;28;20116;-78
2021/12/26 08:05:17;;;;;;;4.72;2.90;;;-1.80;99.90;;;-1.18;74.62;99673.16;5055988;28;20025;-81
2021/12/26 08:07:43;;;;;;;5.25;3.20;;;-1.80;99.90;;;-1.18;74.98;99671.22;5055092;28;20075;-79
2021/12/26 08:10:10;;;;;;;5.10;3.45;;;-1.80;99.90;;;-1.12;75.13;99678.22;5055309;28;20028;-78
2021/12/26 08:12:38;;;;;;;5.80;3.28;;;-1.70;99.90;;;-1.07;75.15;99680.06;5054816;28;20029;-81
2021/12/26 08:15:06;;;;;;;5.80;3.40;;;-1.70;99.90;;;-1.05;75.59;99683.31;5054198;28;20037;-83
2021/12/26 08:17:32;;;;;;;6.03;3.25;;;-1.60;99.90;;;-1.06;75.30;99682.47;5053690;28;20506;-81
2021/12/26 08:19:59;;;;;;;4.53;3.25;;;-1.60;99.90;;;-1.09;75.56;99679.53;5054627;28;20033;-81
2021/12/26 08:22:25;;;;;;;12.23;3.63;;;-1.60;99.90;;;-0.98;75.02;99678.22;5054240;28;20022;-78
2021/12/26 08:24:51;;;;;;;7.15;3.40;;;-1.60;99.90;;;-0.95;75.27;99683.09;5055388;28;20082;-79
2021/12/26 08:27:18;;;;;;;6.60;3.70;;;-1.60;99.90;;;-0.92;75.44;99673.44;5057947;28;20025;-79
2021/12/26 08:29:50;;;;;;;9.05;3.65;;;-1.60;99.90;;;-0.93;75.18;99672.63;5082386;28;20017;-80
2021/12/26 08:32:17;;;;;;;6.72;3.15;;;-1.50;99.90;;;-0.92;75.38;99673.44;5066672;28;20591;-78
2021/12/26 08:34:45;;;;;;;6.30;3.00;;;-1.50;99.90;;;-0.90;75.70;99663.78;5072419;28;20452;-79
2021/12/26 08:37:13;;;;;;;5.03;3.33;;;-1.60;99.90;;;-0.82;75.12;99668.56;5056485;28;20037;-80
2021/12/26 08:39:43;;;;;;;7.63;3.25;;;-1.50;99.90;;;-0.82;75.32;99667.75;5072241;28;20060;-79
2021/12/26 08:42:14;;;;;;;7.22;3.67;;;-1.50;99.90;;;-0.87;76.17;99665.13;5054329;28;20033;-80
2021/12/26 08:44:41;;;;;;;6.85;3.80;;;-1.50;99.90;;;-0.83;76.04;99666.94;5054753;28;20102;-81
2021/12/26 08:47:11;;;;;;;11.07;3.90;;;-1.40;99.90;;;-0.80;75.97;99682.78;5055534;28;20031;-80
2021/12/26 08:49:40;;;;;;;7.40;3.28;;;-1.40;99.90;;;-0.76;75.53;99674.75;5053451;28;20036;-79
2021/12/26 08:52:08;;;;;;;6.55;3.78;;;-1.40;99.90;;;-0.78;76.39;99668.78;5071159;28;20088;-79
2021/12/26 08:54:37;;;;;;;6.55;3.67;;;-1.40;99.90;;;-0.68;76.23;99672.13;5069223;28;20240;-80
2021/12/26 08:57:05;;;;;;;9.15;4.70;;;-1.30;99.90;;;-0.69;76.19;99686.94;5093049;28;20028;-78
2021/12/26 08:59:32;;;;;;;6.35;3.50;;;-1.30;99.90;;;-0.66;76.06;99680.00;5092297;28;20075;-78
2021/12/26 09:02:06;;;;;;;7.55;4.30;;;-1.30;99.90;;;-0.57;76.55;99669.94;5067054;28;20112;-81
2021/12/26 09:04:35;;;;;;;6.18;2.72;;;-1.20;99.90;;;-0.46;76.14;99679.56;5058998;28;20054;-78
2021/12/26 09:07:08;;;;;;;6.57;3.85;;;-1.20;99.90;;;-0.44;76.09;99682.00;5081030;28;20515;-79
2021/12/26 09:09:36;;;;;;;6.97;3.53;;;-1.10;99.90;;;-0.50;76.10;99681.31;5080981;28;20170;-80
2021/12/26 09:12:04;;;;;;;8.95;4.00;;;-1.10;99.90;;;-0.52;76.73;99680.81;5060350;28;20029;-79
2021/12/26 09:14:30;;;;;;;8.45;4.10;;;-1.10;99.90;;;-0.55;76.30;99682.22;5059155;28;20032;-81
2021/12/26 09:16:58;;;;;;;9.30;4.55;;;-1.10;99.90;;;-0.59;77.32;99672.19;5073269;28;20029;-82
2021/12/26 09:19:27;;;;;;;6.47;4.28;;;-1.10;99.90;;;-0.39;77.10;99668.19;5056883;28;20100;-80
2021/12/26 09:21:57;;;;;;;8.45;5.20;;;-1.00;99.90;;;-0.28;77.07;99680.53;5069001;28;20090;-80
2021/12/26 09:24:27;;;;;;;9.02;4.13;;;-0.90;99.90;;;-0.17;76.27;99690.97;5056620;28;20020;-84
2021/12/26 09:26:53;;;;;;;6.53;3.58;;;-0.90;99.90;;;-0.17;76.64;99690.16;5054584;28;20017;-80
2021/12/26 09:29:19;;;;;;;7.15;3.90;;;-0.80;99.90;;;-0.11;76.34;99697.97;5052860;28;20137;-81
2021/12/26 09:31:53;;;;;;;7.90;4.40;;;-0.80;99.90;;;-0.12;76.40;99690.84;5052173;28;20046;-79
2021/12/26 09:34:26;;;;;;;8.27;4.82;;;-0.80;99.90;;;-0.02;76.13;99701.56;5049786;28;20048;-78
2021/12/26 09:36:52;;;;;;;6.90;4.32;;;-0.70;99.90;;;-0.20;77.20;99688.84;5051212;28;20519;-79
2021/12/26 09:39:18;;;;;;;8.93;4.47;;;-0.80;99.90;;;-0.18;77.19;99697.56;5036456;28;20068;-81
2021/12/26 09:41:44;;;;;;;7.00;3.88;;;-0.80;99.90;;;-0.16;77.50;99698.06;5051482;28;20124;-80
2021/12/26 09:44:11;;;;;;;6.63;4.50;;;-0.70;99.90;;;-0.17;77.60;99682.72;5034137;28;20093;-81
2021/12/26 09:46:37;;;;;;;8.35;4.30;;;-0.70;99.90;;;-0.13;77.14;99689.19;5051734;28;20086;-80
2021/12/26 09:49:04;;;;;;;6.60;4.40;;;-0.70;99.90;;;0.00;76.85;99690.31;5036080;28;20515;-78
2021/12/26 09:51:32;;;;;;;8.63;5.03;;;-0.70;99.90;;;-0.04;76.86;99686.53;5051629;28;20079;-79
2021/12/26 09:54:04;;;;;;;8.52;4.50;;;-0.60;99.90;;;0.07;77.07;99685.16;5034624;28;20033;-78
2021/12/26 09:56:32;;;;;;;9.63;4.68;;;-0.60;99.90;;;0.19;76.66;99687.34;5049689;28;20059;-79
2021/12/26 09:59:08;;;;;;;9.32;4.60;;;-0.50;99.90;;;0.44;76.49;99676.53;5035082;28;20041;-79
2021/12/26 10:01:45;;;;;;;10.90;5.00;;;-0.30;99.90;;;0.65;75.32;99678.72;5051822;28;20044;-80
2021/12/26 10:04:31;;;;;;;6.32;4.15;;;-0.20;99.90;;;0.75;74.99;99682.00;5051535;28;20183;-82
2021/12/26 10:07:14;;;;;;;7.60;5.00;;;0.00;99.90;;;0.99;74.41;99674.19;5035276;28;20025;-81
2021/12/26 10:09:53;;;;;;;7.22;4.72;;;0.20;99.90;;;1.13;73.51;99678.75;5050698;28;20396;-80
2021/12/26 10:12:22;;;;;;;8.40;4.85;;;0.30;99.90;;;1.14;73.17;99670.19;5034722;28;20446;-79
2021/12/26 10:14:54;;;;;;;6.68;4.00;;;0.40;99.90;;;1.18;73.32;99671.19;5035297;28;20030;-79
2021/12/26 10:17:26;;;;;;;9.10;4.85;;;0.40;99.90;;;0.93;74.09;99669.94;5034022;28;20067;-79
2021/12/26 10:20:10;;;;;;;8.20;4.82;;;0.30;99.90;;;0.92;74.12;99662.03;5034642;28;20550;-78
2021/12/26 10:22:42;;;;;;;8.63;5.35;;;0.30;99.90;;;0.75;75.27;99667.44;5049594;28;20037;-81
2021/12/26 10:25:15;;;;;;;9.60;5.05;;;0.20;99.90;;;0.90;75.18;99665.09;5040676;28;20561;-78
2021/12/26 10:27:43;;;;;;;6.70;4.82;;;0.20;99.90;;;0.82;75.68;99665.06;5054015;28;20602;-80
2021/12/26 10:30:17;;;;;;;12.63;5.75;;;0.20;99.90;;;0.81;75.87;99652.44;5069480;28;20025;-81